createdAt,value
2022-08-20T00:02:11.605Z,20.90
2022-08-20T00:04:39.465Z,20.90
2022-08-20T00:07:07.001Z,20.90
2022-08-20T00:09:33.728Z,20.80
2022-08-20T00:12:05.411Z,20.70
2022-08-20T00:14:33.941Z,20.70
2022-08-20T00:17:01.703Z,20.60
2022-08-20T00:19:30.919Z,20.60
2022-08-20T00:21:58.226Z,20.60
2022-08-20T00:24:25.672Z,20.50
2022-08-20T00:26:52.983Z,20.60
2022-08-20T00:29:20.459Z,20.60
2022-08-20T00:31:49.835Z,20.60
2022-08-20T00:34:16.605Z,20.60
2022-08-20T00:36:43.491Z,20.60
2022-08-20T00:39:10.301Z,20.50
2022-08-20T00:41:37.130Z,20.60
2022-08-20T00:44:08.637Z,20.60
2022-08-20T00:46:36.219Z,20.60
2022-08-20T00:49:05.148Z,20.60
2022-08-20T00:51:41.132Z,20.60
2022-08-20T00:54:36.225Z,20.50
2022-08-20T00:57:59.053Z,20.40
2022-08-20T01:00:42.387Z,20.40
2022-08-20T01:03:11.431Z,20.40
2022-08-20T01:05:40.033Z,20.40
2022-08-20T01:08:07.596Z,20.40
2022-08-20T01:10:37.388Z,20.40
2022-08-20T01:13:08.075Z,20.40
2022-08-20T01:15:38.059Z,20.40
2022-08-20T01:18:11.932Z,20.40
2022-08-20T01:20:42.733Z,20.30
2022-08-20T01:23:15.258Z,20.30
2022-08-20T01:25:57.358Z,20.30
2022-08-20T01:28:33.960Z,20.30
2022-08-20T01:31:00.698Z,20.30
2022-08-20T01:33:27.538Z,20.20
2022-08-20T01:35:54.620Z,20.20
2022-08-20T01:38:21.618Z,20.10
2022-08-20T01:41:03.943Z,20.10
2022-08-20T01:43:31.154Z,20.10
2022-08-20T01:46:04.156Z,20.10
2022-08-20T01:48:31.792Z,20.10
2022-08-20T01:51:06.045Z,20.10
2022-08-20T01:53:37.036Z,20.00
2022-08-20T01:56:07.528Z,20.10
2022-08-20T01:58:35.967Z,20.10
2022-08-20T02:01:02.904Z,20.10
2022-08-20T02:03:32.507Z,20.10
2022-08-20T02:06:02.077Z,20.10
2022-08-20T02:08:28.855Z,20.10
2022-08-20T02:10:55.556Z,20.10
2022-08-20T02:13:22.365Z,20.00
2022-08-20T02:15:49.036Z,20.10
2022-08-20T02:18:16.094Z,20.00
2022-08-20T02:20:44.538Z,20.10
2022-08-20T02:23:12.205Z,20.10
2022-08-20T02:25:41.860Z,20.00
2022-08-20T02:28:11.592Z,20.00
2022-08-20T02:30:43.211Z,19.90
2022-08-20T02:33:12.780Z,20.00
2022-08-20T02:35:40.854Z,19.80
2022-08-20T02:38:07.683Z,19.70
2022-08-20T02:40:34.608Z,19.60
2022-08-20T02:43:02.059Z,19.60
2022-08-20T02:45:31.712Z,19.50
2022-08-20T02:47:58.523Z,19.50
2022-08-20T02:50:26.930Z,19.50
2022-08-20T02:52:54.231Z,19.40
2022-08-20T02:55:27.951Z,19.50
2022-08-20T02:58:01.363Z,19.50
2022-08-20T03:00:30.154Z,19.40
2022-08-20T03:03:03.451Z,19.40
2022-08-20T03:05:30.130Z,19.30
2022-08-20T03:07:57.230Z,19.20
2022-08-20T03:10:30.795Z,19.10
2022-08-20T03:12:57.772Z,19.10
2022-08-20T03:15:24.525Z,19.10
2022-08-20T03:17:51.334Z,19.10
2022-08-20T03:20:18.306Z,19.10
2022-08-20T03:22:50.941Z,19.10
2022-08-20T03:25:18.180Z,19.00
2022-08-20T03:27:45.511Z,19.10
2022-08-20T03:30:14.372Z,19.10
2022-08-20T03:32:41.709Z,19.00
2022-08-20T03:35:11.627Z,19.00
2022-08-20T03:37:39.470Z,19.00
2022-08-20T03:40:17.043Z,19.00
2022-08-20T03:42:43.809Z,19.00
2022-08-20T03:45:15.048Z,19.10
2022-08-20T03:47:43.854Z,19.00
2022-08-20T03:50:11.544Z,19.10
2022-08-20T03:52:49.961Z,19.10
2022-08-20T03:55:16.770Z,19.10
2022-08-20T03:57:50.622Z,19.10
2022-08-20T04:00:21.911Z,19.20
2022-08-20T04:02:48.699Z,19.10
2022-08-20T04:05:15.587Z,19.00
2022-08-20T04:07:42.745Z,19.00
2022-08-20T04:10:11.853Z,19.00
2022-08-20T04:12:39.025Z,19.10
2022-08-20T04:15:15.563Z,19.10
2022-08-20T04:17:46.561Z,19.10
2022-08-20T04:20:15.938Z,19.10
2022-08-20T04:22:42.633Z,19.10
2022-08-20T04:25:25.769Z,19.10
2022-08-20T04:27:53.671Z,19.00
2022-08-20T04:30:20.622Z,19.00
2022-08-20T04:32:47.291Z,19.00
2022-08-20T04:35:14.634Z,19.00
2022-08-20T04:37:42.177Z,19.00
2022-08-20T04:40:13.243Z,19.00
2022-08-20T04:42:40.048Z,19.00
2022-08-20T04:45:10.815Z,19.10
2022-08-20T04:47:37.620Z,19.20
2022-08-20T04:50:07.444Z,19.10
2022-08-20T04:52:37.232Z,19.10
2022-08-20T04:55:05.258Z,19.10
2022-08-20T04:57:33.755Z,19.10
2022-08-20T05:00:00.759Z,19.10
2022-08-20T05:02:27.440Z,19.10
2022-08-20T05:04:54.178Z,19.10
2022-08-20T05:07:21.885Z,19.10
2022-08-20T05:09:48.589Z,19.10
2022-08-20T05:12:15.264Z,19.10
2022-08-20T05:14:42.071Z,19.10
2022-08-20T05:17:09.186Z,19.00
2022-08-20T05:19:38.892Z,19.20
2022-08-20T05:22:05.726Z,19.20
2022-08-20T05:24:32.577Z,19.30
2022-08-20T05:27:02.361Z,19.30
2022-08-20T05:29:29.026Z,19.30
2022-08-20T05:31:55.774Z,19.40
2022-08-20T05:34:22.593Z,19.40
2022-08-20T05:36:51.063Z,19.40
2022-08-20T05:39:19.783Z,19.30
2022-08-20T05:41:47.027Z,19.30
2022-08-20T05:44:13.874Z,19.30
2022-08-20T05:46:42.509Z,19.40
2022-08-20T05:49:11.346Z,19.40
2022-08-20T05:51:38.147Z,19.40
2022-08-20T05:54:06.160Z,19.50
2022-08-20T05:56:33.388Z,19.50
2022-08-20T05:59:01.584Z,19.50
2022-08-20T06:01:28.880Z,19.50
2022-08-20T06:03:55.922Z,19.60
2022-08-20T06:06:44.625Z,19.60
2022-08-20T06:09:09.398Z,19.50
2022-08-20T06:11:37.341Z,19.40
2022-08-20T06:14:05.055Z,19.50
2022-08-20T06:16:31.820Z,19.40
2022-08-20T06:18:58.811Z,19.50
2022-08-20T06:21:26.187Z,19.30
2022-08-20T06:23:58.411Z,19.40
2022-08-20T06:26:30.296Z,19.50
2022-08-20T06:28:58.603Z,19.40
2022-08-20T06:31:25.575Z,19.40
2022-08-20T06:33:52.262Z,19.50
2022-08-20T06:36:19.687Z,19.40
2022-08-20T06:38:46.563Z,19.40
2022-08-20T06:41:13.797Z,19.40
2022-08-20T06:43:40.733Z,19.40
2022-08-20T06:46:07.599Z,19.40
2022-08-20T06:48:34.721Z,19.30
2022-08-20T06:51:01.389Z,19.40
2022-08-20T06:53:28.087Z,19.40
2022-08-20T06:55:56.707Z,19.50
2022-08-20T06:58:35.643Z,19.50
2022-08-20T07:01:10.958Z,19.60
2022-08-20T07:03:55.443Z,19.60
2022-08-20T07:06:23.813Z,19.70
2022-08-20T07:08:50.550Z,19.70
2022-08-20T07:11:17.255Z,19.70
2022-08-20T07:13:44.028Z,19.70
2022-08-20T07:16:10.760Z,19.70
2022-08-20T07:18:39.813Z,19.80
2022-08-20T07:21:06.595Z,19.90
2022-08-20T07:23:33.382Z,19.90
2022-08-20T07:26:00.080Z,19.80
2022-08-20T07:28:27.717Z,19.90
2022-08-20T07:30:56.886Z,19.80
2022-08-20T07:33:28.420Z,19.80
2022-08-20T07:35:56.737Z,19.70
2022-08-20T07:38:24.939Z,19.70
2022-08-20T07:40:54.653Z,19.70
2022-08-20T07:43:22.023Z,19.70
2022-08-20T07:45:49.820Z,19.70
2022-08-20T07:48:29.700Z,19.60
2022-08-20T07:51:00.727Z,19.50
2022-08-20T07:53:30.235Z,19.60
2022-08-20T07:56:01.403Z,19.70
2022-08-20T07:58:33.422Z,19.70
2022-08-20T08:01:00.688Z,19.70
2022-08-20T08:03:41.056Z,19.70
2022-08-20T08:06:14.576Z,19.70
2022-08-20T08:08:43.964Z,19.60
2022-08-20T08:11:12.133Z,19.60
2022-08-20T08:13:41.183Z,19.50
2022-08-20T08:16:09.593Z,19.60
2022-08-20T08:18:45.194Z,19.70
2022-08-20T08:21:12.450Z,19.70
2022-08-20T08:23:40.281Z,19.60
2022-08-20T08:26:06.993Z,19.70
2022-08-20T08:28:43.295Z,19.80
2022-08-20T08:31:11.337Z,19.80
2022-08-20T08:33:38.199Z,19.80
2022-08-20T08:36:10.967Z,19.80
2022-08-20T08:38:39.927Z,19.80
2022-08-20T08:41:35.856Z,19.90
2022-08-20T08:44:15.724Z,19.80
2022-08-20T08:46:44.594Z,19.80
2022-08-20T08:49:17.532Z,19.80
2022-08-20T08:51:56.687Z,19.80
2022-08-20T08:54:28.419Z,19.90
2022-08-20T08:56:55.607Z,19.80
2022-08-20T08:59:23.393Z,19.80
2022-08-20T09:01:57.154Z,19.90
2022-08-20T09:04:38.914Z,20.00
2022-08-20T09:07:10.533Z,20.10
2022-08-20T09:09:40.527Z,20.10
2022-08-20T09:12:12.632Z,20.20
2022-08-20T09:14:40.168Z,20.20
2022-08-20T09:17:07.380Z,20.30
2022-08-20T09:19:34.079Z,20.40
2022-08-20T09:22:11.311Z,20.50
2022-08-20T09:24:38.777Z,20.60
2022-08-20T09:27:06.047Z,20.60
2022-08-20T09:29:33.053Z,20.70
2022-08-20T09:32:10.574Z,20.80
2022-08-20T09:34:39.294Z,20.90
2022-08-20T09:37:06.419Z,20.90
2022-08-20T09:39:33.352Z,20.80
2022-08-20T09:42:15.054Z,20.90
2022-08-20T09:44:41.828Z,21.00
2022-08-20T09:47:08.975Z,21.00
2022-08-20T09:49:36.104Z,21.00
2022-08-20T09:52:05.656Z,21.00
2022-08-20T09:54:33.061Z,21.00
2022-08-20T09:57:06.761Z,21.00
2022-08-20T09:59:35.508Z,20.90
2022-08-20T10:02:02.401Z,20.80
2022-08-20T10:04:29.291Z,20.70
2022-08-20T10:06:56.663Z,20.70
2022-08-20T10:09:23.599Z,20.60
2022-08-20T10:11:50.293Z,20.60
2022-08-20T10:14:16.973Z,20.60
2022-08-20T10:16:43.673Z,20.60
2022-08-20T10:19:10.424Z,20.60
2022-08-20T10:21:40.288Z,20.70
2022-08-20T10:24:06.999Z,20.70
2022-08-20T10:26:33.832Z,20.80
2022-08-20T10:29:00.547Z,20.70
2022-08-20T10:31:27.301Z,20.90
2022-08-20T10:33:54.243Z,20.90
2022-08-20T10:36:20.966Z,21.00
2022-08-20T10:38:47.808Z,20.90
2022-08-20T10:41:14.907Z,21.00
2022-08-20T10:43:41.684Z,21.10
2022-08-20T10:46:08.592Z,21.20
2022-08-20T10:48:35.581Z,21.30
2022-08-20T10:51:02.826Z,21.40
2022-08-20T10:53:30.020Z,21.50
2022-08-20T10:55:57.649Z,21.40
2022-08-20T10:58:25.529Z,21.30
2022-08-20T11:00:53.139Z,21.40
2022-08-20T11:03:20.562Z,21.60
2022-08-20T11:05:48.007Z,21.60
2022-08-20T11:08:14.851Z,21.60
2022-08-20T11:11:00.825Z,21.70
2022-08-20T11:13:27.557Z,21.70
2022-08-20T11:15:54.435Z,21.70
2022-08-20T11:18:21.324Z,21.70
2022-08-20T11:20:48.079Z,21.70
2022-08-20T11:23:14.866Z,21.60
2022-08-20T11:25:41.673Z,21.50
2022-08-20T11:28:08.370Z,21.60
2022-08-20T11:30:37.089Z,21.60
2022-08-20T11:33:04.679Z,21.50
2022-08-20T11:35:50.059Z,21.50
2022-08-20T11:38:18.035Z,21.60
2022-08-20T11:40:45.363Z,21.70
2022-08-20T11:43:15.079Z,21.70
2022-08-20T11:45:47.599Z,21.70
2022-08-20T11:48:14.409Z,21.90
2022-08-20T11:50:41.234Z,21.80
2022-08-20T11:53:08.288Z,21.60
2022-08-20T11:55:35.677Z,21.50
2022-08-20T11:58:02.995Z,21.60
2022-08-20T12:00:32.952Z,21.60
2022-08-20T12:03:05.731Z,21.60
2022-08-20T12:05:37.161Z,21.60
2022-08-20T12:08:04.211Z,21.50
2022-08-20T12:10:32.239Z,21.50
2022-08-20T12:12:59.273Z,21.60
2022-08-20T12:15:26.753Z,21.80
2022-08-20T12:17:54.863Z,21.80
2022-08-20T12:20:23.168Z,21.80
2022-08-20T12:22:50.428Z,21.70
2022-08-20T12:25:17.204Z,21.70
2022-08-20T12:27:43.915Z,21.80
2022-08-20T12:30:14.872Z,21.80
2022-08-20T12:32:41.976Z,21.90
2022-08-20T12:35:10.027Z,21.90
2022-08-20T12:37:36.779Z,21.90
2022-08-20T12:40:06.749Z,21.80
2022-08-20T12:42:33.646Z,21.60
2022-08-20T12:45:01.112Z,21.60
2022-08-20T12:47:31.226Z,21.60
2022-08-20T12:50:05.288Z,21.60
2022-08-20T12:52:32.649Z,21.60
2022-08-20T12:55:00.507Z,21.50
2022-08-20T12:57:29.153Z,21.60
2022-08-20T13:00:05.867Z,21.60
2022-08-20T13:02:32.639Z,21.50
2022-08-20T13:05:04.558Z,21.50
2022-08-20T13:07:33.382Z,21.50
2022-08-20T13:10:01.004Z,21.50
2022-08-20T13:12:28.491Z,21.50
2022-08-20T13:14:55.234Z,21.50
2022-08-20T13:17:38.004Z,21.40
2022-08-20T13:20:08.905Z,21.30
2022-08-20T13:22:35.806Z,21.20
2022-08-20T13:25:02.571Z,21.20
2022-08-20T13:27:29.669Z,21.10
2022-08-20T13:29:58.801Z,21.10
2022-08-20T13:32:26.347Z,21.10
2022-08-20T13:34:53.626Z,20.90
2022-08-20T13:37:25.655Z,20.90
2022-08-20T13:39:53.551Z,20.90
2022-08-20T13:42:20.835Z,20.80
2022-08-20T13:44:48.597Z,20.70
2022-08-20T13:47:19.722Z,20.60
2022-08-20T13:49:47.748Z,20.50
2022-08-20T13:52:16.919Z,20.40
2022-08-20T13:54:43.968Z,20.30
2022-08-20T13:57:17.860Z,20.20
2022-08-20T13:59:47.165Z,20.10
2022-08-20T14:02:14.482Z,20.00
2022-08-20T14:04:41.283Z,20.00
2022-08-20T14:07:18.662Z,20.00
2022-08-20T14:09:48.691Z,20.00
2022-08-20T14:12:15.934Z,19.80
2022-08-20T14:14:42.779Z,19.80
2022-08-20T14:17:24.593Z,19.70
2022-08-20T14:19:55.023Z,19.70
2022-08-20T14:22:25.231Z,19.60
2022-08-20T14:24:52.387Z,19.60
2022-08-20T14:27:21.613Z,19.60
2022-08-20T14:29:50.148Z,19.50
2022-08-20T14:32:17.667Z,19.50
2022-08-20T14:34:44.605Z,19.50
2022-08-20T14:37:21.449Z,19.50
2022-08-20T14:39:51.537Z,19.40
2022-08-20T14:42:18.751Z,19.50
2022-08-20T14:44:45.656Z,19.60
2022-08-20T14:47:12.449Z,19.60
2022-08-20T14:49:39.144Z,19.60
2022-08-20T14:52:06.649Z,19.70
2022-08-20T14:54:34.857Z,19.70
2022-08-20T14:57:02.266Z,19.80
2022-08-20T14:59:29.228Z,19.80
2022-08-20T15:01:56.010Z,19.80
2022-08-20T15:04:23.788Z,19.80
2022-08-20T15:06:54.628Z,19.80
2022-08-20T15:09:21.564Z,19.70
2022-08-20T15:11:48.678Z,19.60
2022-08-20T15:14:18.550Z,19.50
2022-08-20T15:16:46.281Z,19.50
2022-08-20T15:19:12.970Z,19.60
2022-08-20T15:21:45.249Z,19.60
2022-08-20T15:24:15.685Z,19.60
2022-08-20T15:26:46.398Z,19.50
2022-08-20T15:29:22.987Z,19.50
2022-08-20T15:31:50.859Z,19.50
2022-08-20T15:34:18.221Z,19.50
2022-08-20T15:36:45.704Z,19.50
2022-08-20T15:39:12.442Z,19.60
2022-08-20T15:41:39.147Z,19.50
2022-08-20T15:44:05.818Z,19.50
2022-08-20T15:46:36.064Z,19.50
2022-08-20T15:49:11.144Z,19.40
2022-08-20T15:51:45.859Z,19.50
2022-08-20T15:54:24.910Z,19.50
2022-08-20T15:56:57.703Z,19.50
2022-08-20T15:59:31.839Z,19.50
2022-08-20T16:02:10.146Z,19.50
2022-08-20T16:04:50.715Z,19.40
2022-08-20T16:11:16.617Z,19.40
2022-08-20T16:14:09.573Z,19.40
2022-08-20T16:16:42.445Z,19.40
2022-08-20T16:19:17.143Z,19.40
2022-08-20T16:21:46.143Z,19.40
2022-08-20T16:24:14.562Z,19.50
2022-08-20T16:26:47.251Z,19.50
2022-08-20T16:29:25.577Z,19.50
2022-08-20T16:32:28.695Z,19.50
2022-08-20T16:35:07.391Z,19.50
2022-08-20T16:38:20.797Z,19.50
2022-08-20T16:40:56.831Z,19.40
2022-08-20T16:43:39.673Z,19.40
2022-08-20T16:46:19.951Z,19.50
2022-08-20T16:48:54.106Z,19.50
2022-08-20T16:51:48.195Z,19.50
2022-08-20T16:54:20.928Z,19.60
2022-08-20T16:57:05.159Z,19.60
2022-08-20T16:59:33.440Z,19.60
2022-08-20T17:02:18.539Z,19.60
2022-08-20T17:05:00.067Z,19.60
2022-08-20T17:07:46.489Z,19.60
2022-08-20T17:10:32.837Z,19.60
2022-08-20T17:13:17.694Z,19.60
2022-08-20T17:15:54.750Z,19.60
2022-08-20T17:18:36.419Z,19.60
2022-08-20T17:21:34.186Z,19.60
2022-08-20T17:24:16.638Z,19.60
2022-08-20T17:26:50.422Z,19.60
2022-08-20T17:29:26.511Z,19.60
2022-08-20T17:32:16.982Z,19.60
2022-08-20T17:34:52.858Z,19.60
2022-08-20T17:37:24.038Z,19.60
2022-08-20T17:40:33.236Z,19.60
2022-08-20T17:43:05.931Z,19.60
2022-08-20T17:45:45.752Z,19.60
2022-08-20T17:48:24.412Z,19.60
2022-08-20T17:50:54.087Z,19.60
2022-08-20T17:56:41.209Z,19.60
2022-08-20T17:59:36.394Z,19.60
2022-08-20T18:02:14.817Z,19.70
2022-08-20T18:04:44.551Z,19.70
2022-08-20T18:07:24.556Z,19.70
2022-08-20T18:10:13.977Z,19.60
2022-08-20T18:12:59.445Z,19.60
2022-08-20T18:15:39.263Z,19.60
2022-08-20T18:18:28.551Z,19.50
2022-08-20T18:21:32.498Z,19.40
2022-08-20T18:24:11.834Z,19.40
2022-08-20T18:26:49.460Z,19.30
2022-08-20T18:29:21.071Z,19.30
2022-08-20T18:31:55.326Z,19.30
2022-08-20T18:34:28.153Z,19.20
2022-08-20T18:37:08.233Z,19.20
2022-08-20T18:39:42.430Z,19.30
2022-08-20T18:42:25.430Z,19.20
2022-08-20T18:44:54.821Z,19.20
2022-08-20T18:47:33.611Z,19.10
2022-08-20T18:50:16.453Z,19.10
2022-08-20T18:52:51.219Z,19.00
2022-08-20T18:55:43.453Z,19.10
2022-08-20T18:58:14.357Z,19.10
2022-08-20T19:00:46.783Z,19.10
2022-08-20T19:03:19.162Z,19.10
2022-08-20T19:05:45.804Z,19.10
2022-08-20T19:08:16.921Z,19.00
2022-08-20T19:11:28.168Z,19.00
2022-08-20T19:14:41.362Z,19.00
2022-08-20T19:17:24.001Z,19.10
2022-08-20T19:20:20.525Z,19.00
2022-08-20T19:22:55.980Z,19.00
2022-08-20T19:26:24.819Z,19.00
2022-08-20T19:28:58.968Z,19.00
2022-08-20T19:31:33.562Z,19.10
2022-08-20T19:34:23.144Z,19.10
2022-08-20T19:37:07.778Z,19.20
2022-08-20T19:39:37.479Z,19.10
2022-08-20T19:42:15.953Z,19.10
2022-08-20T19:45:02.420Z,19.10
2022-08-20T19:47:36.867Z,19.10
2022-08-20T19:50:12.679Z,19.10
2022-08-20T19:53:10.263Z,19.10
2022-08-20T19:55:39.407Z,19.10
2022-08-20T19:58:18.826Z,19.10
2022-08-20T20:00:55.851Z,19.10
2022-08-20T20:03:31.170Z,19.10
2022-08-20T20:06:19.710Z,19.10
2022-08-20T20:09:14.805Z,19.10
2022-08-20T20:11:46.936Z,19.10
2022-08-20T20:14:16.375Z,19.10
2022-08-20T20:16:48.625Z,19.20
2022-08-20T20:19:27.253Z,19.20
2022-08-20T20:22:19.508Z,19.30
2022-08-20T20:24:57.223Z,19.30
2022-08-20T20:27:26.566Z,19.30
2022-08-20T20:30:32.408Z,19.40
2022-08-20T20:33:11.796Z,19.40
2022-08-20T20:35:39.985Z,19.40
2022-08-20T20:38:13.230Z,19.40
2022-08-20T20:40:52.978Z,19.50
2022-08-20T20:43:42.083Z,19.50
2022-08-20T20:46:25.569Z,19.50
2022-08-20T20:49:17.100Z,19.50
2022-08-20T20:51:59.047Z,19.50
2022-08-20T20:54:30.086Z,19.50
2022-08-20T20:57:36.434Z,19.50
2022-08-20T21:00:15.933Z,19.50
2022-08-20T21:02:46.288Z,19.50
2022-08-20T21:05:19.981Z,19.50
2022-08-20T21:07:53.855Z,19.50
2022-08-20T21:10:24.689Z,19.50
2022-08-20T21:12:53.621Z,19.50
2022-08-20T21:15:23.672Z,19.50
2022-08-20T21:17:52.262Z,19.50
2022-08-20T21:20:21.605Z,19.60
2022-08-20T21:22:50.428Z,19.60
2022-08-20T21:25:21.954Z,19.60
2022-08-20T21:27:52.567Z,19.50
2022-08-20T21:30:22.548Z,19.50
2022-08-20T21:32:52.886Z,19.50
2022-08-20T21:35:21.756Z,19.60
2022-08-20T21:37:49.929Z,19.60
2022-08-20T21:40:21.674Z,19.60
2022-08-20T21:42:55.921Z,19.60
2022-08-20T21:45:23.343Z,19.60
2022-08-20T21:47:56.489Z,19.60
2022-08-20T21:50:25.232Z,19.60
2022-08-20T21:52:59.929Z,19.60
2022-08-20T21:55:32.181Z,19.60
2022-08-20T21:58:02.766Z,19.60
2022-08-20T22:00:47.606Z,19.60
2022-08-20T22:03:16.622Z,19.60
2022-08-20T22:05:49.268Z,19.60
2022-08-20T22:08:16.547Z,19.60
2022-08-20T22:10:44.802Z,19.50
2022-08-20T22:13:13.690Z,19.50
2022-08-20T22:15:40.683Z,19.50
2022-08-20T22:18:09.156Z,19.50
2022-08-20T22:20:37.516Z,19.60
2022-08-20T22:23:06.137Z,19.50
2022-08-20T22:25:34.481Z,19.50
2022-08-20T22:28:02.514Z,19.50
2022-08-20T22:30:30.489Z,19.50
2022-08-20T22:33:05.147Z,19.50
2022-08-20T22:35:34.776Z,19.50
2022-08-20T22:38:02.620Z,19.50
2022-08-20T22:40:30.711Z,19.50
2022-08-20T22:42:58.887Z,19.50
2022-08-20T22:45:27.305Z,19.50
2022-08-20T22:47:56.572Z,19.60
2022-08-20T22:50:28.211Z,19.60
2022-08-20T22:52:56.403Z,19.60
2022-08-20T22:55:27.794Z,19.60
2022-08-20T22:57:58.374Z,19.60
2022-08-20T23:00:26.885Z,19.60
2022-08-20T23:02:58.246Z,19.60
2022-08-20T23:05:29.272Z,19.70
2022-08-20T23:07:58.597Z,19.60
2022-08-20T23:10:28.615Z,19.60
2022-08-20T23:12:56.896Z,19.60
2022-08-20T23:15:36.358Z,19.60
2022-08-20T23:18:15.779Z,19.60
2022-08-20T23:20:49.959Z,19.60
2022-08-20T23:23:18.329Z,19.60
2022-08-20T23:25:47.085Z,19.60
2022-08-20T23:28:18.576Z,19.60
2022-08-20T23:30:48.027Z,19.60
2022-08-20T23:33:16.626Z,19.60
2022-08-20T23:35:45.534Z,19.60
2022-08-20T23:38:14.073Z,19.60
2022-08-20T23:40:42.526Z,19.60
2022-08-20T23:43:10.748Z,19.60
2022-08-20T23:45:40.110Z,19.60
2022-08-20T23:48:09.286Z,19.50
2022-08-20T23:50:37.694Z,19.50
2022-08-20T23:53:06.026Z,19.50
2022-08-20T23:55:34.128Z,19.50
2022-08-20T23:58:04.438Z,19.50
